Time;durP1;ratioP1;P1;durP2;ratioP2;P2;SDS_P1;SDS_P2;PMS_P1;PMS_P2;Temp;Humidity;BMP_temperature;BMP_pressure;BME280_temperature;BME280_humidity;BME280_pressure;Samples;Min_cycle;Max_cycle;Signal;HPM_P1;HPM_P2
2021/04/19 00:00:25;;;;;;;14.03;10.20;;;3.10;99.90;;;;;;2073106;28;20655;-64
2021/04/19 00:01:26;;;;;;;12.83;9.53;;;3.10;99.90;;;;;;2072969;28;20838;-63
2021/04/19 00:02:27;;;;;;;15.53;10.43;;;3.10;99.90;;;;;;2073060;28;20210;-63
2021/04/19 00:03:28;;;;;;;15.20;10.03;;;3.10;99.90;;;;;;2073178;28;20500;-63
2021/04/19 00:04:28;;;;;;;13.73;10.53;;;3.10;99.90;;;;;;2073004;28;20185;-62
2021/04/19 00:05:29;;;;;;;13.27;10.20;;;3.10;99.90;;;;;;2073139;28;20181;-64
2021/04/19 00:06:30;;;;;;;12.47;9.23;;;3.10;99.90;;;;;;2072798;28;20201;-64
2021/04/19 00:07:31;;;;;;;15.23;10.13;;;3.00;99.90;;;;;;2073218;28;20174;-64
2021/04/19 00:08:31;;;;;;;13.77;9.57;;;3.00;99.90;;;;;;2072984;28;20570;-64
2021/04/19 00:09:33;;;;;;;12.30;9.60;;;3.00;99.90;;;;;;2073066;28;20205;-64
2021/04/19 00:10:33;;;;;;;12.93;9.27;;;3.00;99.90;;;;;;2073093;28;20182;-64
2021/04/19 00:11:35;;;;;;;16.10;10.33;;;3.00;99.90;;;;;;2072927;28;20177;-63
2021/04/19 00:12:36;;;;;;;14.27;10.90;;;3.00;99.90;;;;;;2072968;28;20232;-63
2021/04/19 00:13:37;;;;;;;12.98;10.40;;;2.90;99.90;;;;;;2072418;28;20182;-63
2021/04/19 00:14:38;;;;;;;12.10;9.27;;;2.90;99.90;;;;;;2072469;28;20189;-63
2021/04/19 00:15:38;;;;;;;14.43;10.10;;;2.90;99.90;;;;;;2073094;28;20197;-63
2021/04/19 00:16:39;;;;;;;13.97;10.17;;;2.90;99.90;;;;;;2072983;28;20209;-64
2021/04/19 00:17:40;;;;;;;13.10;9.80;;;2.80;99.90;;;;;;2080613;28;20224;-63
2021/04/19 00:18:41;;;;;;;16.33;10.87;;;2.80;99.90;;;;;;2080413;28;20204;-64
2021/04/19 00:19:42;;;;;;;10.63;8.60;;;2.80;99.90;;;;;;2073004;28;20186;-64
2021/04/19 00:20:43;;;;;;;14.23;10.32;;;2.80;99.90;;;;;;2072276;28;20182;-64
2021/04/19 00:21:44;;;;;;;15.60;10.40;;;2.80;99.90;;;;;;2072204;28;20190;-64
2021/04/19 00:22:45;;;;;;;13.63;9.80;;;2.70;99.90;;;;;;2072885;28;20269;-63
2021/04/19 00:23:45;;;;;;;12.27;9.87;;;2.70;99.90;;;;;;2073101;28;20181;-64
2021/04/19 00:24:46;;;;;;;16.07;10.27;;;2.60;99.90;;;;;;2073157;28;20257;-62
2021/04/19 00:25:47;;;;;;;13.90;10.10;;;2.60;99.90;;;;;;2072985;28;20220;-63
2021/04/19 00:26:47;;;;;;;14.47;10.90;;;2.60;99.90;;;;;;2072616;28;20213;-64
2021/04/19 00:27:48;;;;;;;14.60;9.73;;;2.50;99.90;;;;;;2072488;28;20228;-65
2021/04/19 00:28:49;;;;;;;14.37;10.57;;;2.50;99.90;;;;;;2072968;28;20269;-65
2021/04/19 00:29:50;;;;;;;15.57;10.55;;;2.50;99.90;;;;;;2072885;28;20278;-65
2021/04/19 00:30:51;;;;;;;16.03;11.00;;;2.50;99.90;;;;;;2073081;28;20213;-65
2021/04/19 00:31:52;;;;;;;15.60;10.60;;;2.40;99.90;;;;;;2072715;28;20181;-65
2021/04/19 00:32:53;;;;;;;18.80;10.77;;;2.40;99.90;;;;;;2073031;28;20595;-64
2021/04/19 00:33:53;;;;;;;18.93;10.70;;;2.40;99.90;;;;;;2072917;28;20219;-65
2021/04/19 00:34:54;;;;;;;15.10;9.37;;;2.30;99.90;;;;;;2073120;28;20209;-65
2021/04/19 00:35:55;;;;;;;14.80;10.37;;;2.30;99.90;;;;;;2072814;28;20555;-64
2021/04/19 00:36:55;;;;;;;14.27;10.80;;;2.30;99.90;;;;;;2073190;28;20185;-64
2021/04/19 00:37:56;;;;;;;13.73;10.17;;;2.30;99.90;;;;;;2072920;28;20957;-65
2021/04/19 00:38:57;;;;;;;13.27;9.67;;;2.20;99.90;;;;;;2073064;28;20194;-65
2021/04/19 00:39:58;;;;;;;16.90;11.20;;;2.20;99.90;;;;;;2072978;28;20185;-65
2021/04/19 00:41:01;;;;;;;14.57;9.67;;;2.20;99.90;;;;;;2072977;28;20178;-63
2021/04/19 00:42:02;;;;;;;14.25;10.25;;;2.20;99.90;;;;;;2072150;28;20224;-65
2021/04/19 00:43:03;;;;;;;17.55;10.93;;;2.30;99.90;;;;;;2064499;28;20712;-65
2021/04/19 00:44:05;;;;;;;15.00;10.35;;;2.30;99.90;;;;;;2072354;28;20236;-64
2021/04/19 00:45:08;;;;;;;14.35;10.40;;;2.30;99.90;;;;;;2073106;28;20187;-65
2021/04/19 00:46:09;;;;;;;16.65;10.85;;;2.30;99.90;;;;;;2080436;28;20220;-65
2021/04/19 00:47:11;;;;;;;15.20;10.60;;;2.30;99.90;;;;;;2080637;28;20200;-65
2021/04/19 00:48:11;;;;;;;14.93;10.52;;;2.30;99.90;;;;;;2072296;28;20687;-65
2021/04/19 00:49:12;;;;;;;13.60;9.53;;;2.30;99.90;;;;;;2072258;28;20182;-65
2021/04/19 00:50:29;;;;;;;15.67;10.47;;;2.30;99.90;;;;;;2072084;28;20645;-63
2021/04/19 00:51:30;;;;;;;16.40;10.88;;;2.30;99.90;;;;;;2066361;28;20704;-65
2021/04/19 00:52:32;;;;;;;16.27;10.40;;;2.20;99.90;;;;;;2072244;28;20201;-63
2021/04/19 00:53:35;;;;;;;14.80;10.95;;;2.20;99.90;;;;;;2080488;28;20166;-64
2021/04/19 00:54:37;;;;;;;14.23;9.90;;;2.20;99.90;;;;;;2080211;28;20275;-64
2021/04/19 00:55:38;;;;;;;15.27;10.88;;;2.20;99.90;;;;;;2072244;28;20185;-64
2021/04/19 00:56:39;;;;;;;13.47;10.23;;;2.10;99.90;;;;;;2064033;28;20281;-64
2021/04/19 00:57:41;;;;;;;17.25;10.88;;;2.10;99.90;;;;;;2072253;28;20189;-65
2021/04/19 00:58:45;;;;;;;15.93;10.95;;;2.10;99.90;;;;;;2074601;28;20196;-64
2021/04/19 00:59:46;;;;;;;13.43;10.27;;;2.00;99.90;;;;;;2072871;28;20213;-65
2021/04/19 01:00:46;;;;;;;14.17;10.67;;;2.00;99.90;;;;;;2080178;28;20193;-65
2021/04/19 01:01:48;;;;;;;16.00;10.83;;;1.90;99.90;;;;;;2080207;28;20186;-64
2021/04/19 01:02:49;;;;;;;14.50;10.10;;;1.90;99.90;;;;;;2072781;28;20668;-65
2021/04/19 01:03:50;;;;;;;17.10;11.57;;;1.90;99.90;;;;;;2072815;28;20194;-64
2021/04/19 01:04:50;;;;;;;19.10;11.70;;;1.80;99.90;;;;;;2072769;28;20190;-64
2021/04/19 01:05:52;;;;;;;17.60;11.43;;;1.80;99.90;;;;;;2072680;28;20184;-65
2021/04/19 01:06:55;;;;;;;17.45;11.73;;;1.80;99.90;;;;;;2072774;28;20652;-65
2021/04/19 01:07:56;;;;;;;15.43;11.52;;;1.70;99.90;;;;;;2072735;28;20181;-65
2021/04/19 01:08:57;;;;;;;16.20;11.37;;;1.70;99.90;;;;;;2072799;28;20713;-64
2021/04/19 01:09:58;;;;;;;15.17;11.77;;;1.60;99.90;;;;;;2072725;28;20198;-64
2021/04/19 01:10:58;;;;;;;17.53;12.17;;;1.60;99.90;;;;;;2072621;28;20213;-65
2021/04/19 01:11:59;;;;;;;17.87;11.53;;;1.60;99.90;;;;;;2071914;28;20220;-64
2021/04/19 01:13:01;;;;;;;19.20;11.50;;;1.50;99.90;;;;;;2072143;28;20260;-64
2021/04/19 01:14:02;;;;;;;14.75;11.05;;;1.50;99.90;;;;;;2072274;28;20264;-64
2021/04/19 01:15:05;;;;;;;16.02;11.23;;;1.40;99.90;;;;;;2064059;28;20189;-65
2021/04/19 01:16:06;;;;;;;18.13;11.35;;;1.40;99.90;;;;;;2064099;28;20193;-65
2021/04/19 01:17:07;;;;;;;17.38;11.20;;;1.30;99.90;;;;;;2072217;28;20178;-65
2021/04/19 01:18:09;;;;;;;18.27;12.32;;;1.30;99.90;;;;;;2072159;28;20229;-64
2021/04/19 01:19:09;;;;;;;17.17;11.80;;;1.30;99.90;;;;;;2072113;28;20174;-64
2021/04/19 01:20:15;;;;;;;15.63;10.93;;;1.30;99.90;;;;;;2072771;28;20188;-64
2021/04/19 01:21:15;;;;;;;17.75;10.98;;;1.20;99.90;;;;;;2072475;28;20223;-65
2021/04/19 01:22:16;;;;;;;17.13;11.60;;;1.20;99.90;;;;;;2072745;28;20193;-64
2021/04/19 01:23:18;;;;;;;19.00;12.27;;;1.20;99.90;;;;;;2072690;28;20184;-64
2021/04/19 01:24:19;;;;;;;17.25;11.93;;;1.20;99.90;;;;;;2080467;28;20181;-65
2021/04/19 01:25:27;;;;;;;17.05;11.70;;;1.20;99.90;;;;;;2080210;28;20199;-64
2021/04/19 01:26:28;;;;;;;20.95;12.20;;;1.10;99.90;;;;;;2072736;28;20292;-64
2021/04/19 01:27:29;;;;;;;17.77;11.67;;;1.10;99.90;;;;;;2072780;28;20166;-65
2021/04/19 01:28:29;;;;;;;19.20;12.90;;;1.10;99.90;;;;;;2072796;28;20258;-65
2021/04/19 01:29:30;;;;;;;26.00;13.63;;;1.00;99.90;;;;;;2072595;28;20701;-64
2021/04/19 01:30:35;;;;;;;23.40;13.93;;;1.00;99.90;;;;;;2072754;28;20268;-65
2021/04/19 01:31:36;;;;;;;20.88;13.32;;;1.00;99.90;;;;;;2072582;28;20207;-64
2021/04/19 01:32:37;;;;;;;19.57;13.00;;;1.00;99.90;;;;;;2072657;28;20189;-65
2021/04/19 01:33:37;;;;;;;18.60;12.30;;;1.00;99.90;;;;;;2072585;28;20193;-64
2021/04/19 01:34:38;;;;;;;16.37;12.03;;;0.90;99.90;;;;;;2072679;28;20653;-63
2021/04/19 01:35:41;;;;;;;18.07;11.60;;;0.90;99.90;;;;;;2072640;28;20287;-64
2021/04/19 01:36:41;;;;;;;16.83;11.65;;;0.90;99.90;;;;;;2072718;28;20200;-64
2021/04/19 01:37:43;;;;;;;15.70;11.17;;;0.90;99.90;;;;;;2072626;28;20234;-62
2021/04/19 01:38:44;;;;;;;19.48;13.18;;;0.90;99.90;;;;;;2072593;28;20912;-65
2021/04/19 01:39:45;;;;;;;21.57;13.50;;;0.90;99.90;;;;;;2072639;28;20200;-64
2021/04/19 01:40:47;;;;;;;17.95;12.70;;;0.80;99.90;;;;;;2073700;28;20193;-65
2021/04/19 01:41:47;;;;;;;20.63;13.18;;;0.80;99.90;;;;;;2074063;28;20188;-63
2021/04/19 01:42:49;;;;;;;21.43;13.50;;;0.80;99.90;;;;;;2074215;28;20196;-65
2021/04/19 01:43:49;;;;;;;22.02;13.25;;;0.80;99.90;;;;;;2073519;28;20202;-64
2021/04/19 01:44:50;;;;;;;19.70;11.77;;;0.80;99.90;;;;;;2073625;28;20203;-65
2021/04/19 01:45:51;;;;;;;19.60;13.47;;;0.70;99.90;;;;;;2074181;28;20193;-64
2021/04/19 01:46:54;;;;;;;20.20;12.45;;;0.70;99.90;;;;;;2074176;28;20652;-65
2021/04/19 01:47:56;;;;;;;21.67;13.70;;;0.70;99.90;;;;;;2074137;28;20184;-63
2021/04/19 01:48:56;;;;;;;22.80;13.93;;;0.60;99.90;;;;;;2074008;28;20272;-64
2021/04/19 01:49:57;;;;;;;21.50;13.93;;;0.70;99.90;;;;;;2081723;28;20200;-63
2021/04/19 01:50:58;;;;;;;23.73;13.33;;;0.70;99.90;;;;;;2081776;28;20231;-65
2021/04/19 01:52:00;;;;;;;21.23;12.60;;;0.60;99.90;;;;;;2074096;28;20416;-63
2021/04/19 01:53:02;;;;;;;19.27;13.02;;;0.60;99.90;;;;;;2073394;28;20664;-64
2021/04/19 01:54:03;;;;;;;19.02;12.13;;;0.60;99.90;;;;;;2073476;28;20274;-63
2021/04/19 01:55:11;;;;;;;18.10;12.50;;;0.60;99.90;;;;;;2074131;28;20213;-65
2021/04/19 01:56:11;;;;;;;21.88;13.85;;;0.50;99.90;;;;;;2073444;28;20209;-65
2021/04/19 01:57:12;;;;;;;21.27;12.90;;;0.50;99.90;;;;;;2073493;28;20192;-65
2021/04/19 01:58:18;;;;;;;21.50;13.17;;;0.50;99.90;;;;;;2074813;28;20187;-64
2021/04/19 01:59:20;;;;;;;15.80;11.75;;;0.50;99.90;;;;;;2074265;28;20248;-64
2021/04/19 02:00:24;;;;;;;22.70;13.85;;;0.50;99.90;;;;;;2073664;28;20620;-64
2021/04/19 02:01:25;;;;;;;19.40;13.88;;;0.50;99.90;;;;;;2073447;28;20219;-64
2021/04/19 02:02:56;;;;;;;20.58;13.63;;;0.50;99.90;;;;;;2073518;28;20659;-65
2021/04/19 02:04:19;;;;;;;21.45;13.52;;;0.50;99.90;;;;;;2064613;28;20260;-64
2021/04/19 02:05:44;;;;;;;18.98;13.25;;;0.50;99.90;;;;;;2073730;28;20226;-64
2021/04/19 02:07:15;;;;;;;19.42;12.18;;;0.40;99.90;;;;;;2074121;28;20277;-65
2021/04/19 02:08:51;;;;;;;25.17;13.52;;;0.50;99.90;;;;;;2073648;28;20189;-64
2021/04/19 02:10:04;;;;;;;22.25;13.05;;;0.40;99.90;;;;;;2069935;28;20247;-65
2021/04/19 02:11:33;;;;;;;22.10;12.77;;;0.40;99.90;;;;;;2073495;28;20169;-63
2021/04/19 02:12:50;;;;;;;20.55;13.35;;;0.40;99.90;;;;;;2073986;28;20199;-63
2021/04/19 02:14:13;;;;;;;19.60;12.98;;;0.30;99.90;;;;;;2073894;28;20174;-64
2021/04/19 02:15:44;;;;;;;19.75;12.65;;;0.20;99.90;;;;;;2073999;28;20170;-65
2021/04/19 02:17:01;;;;;;;20.10;11.20;;;0.20;99.90;;;;;;2073991;28;20234;-61
2021/04/19 02:18:48;;;;;;;19.05;11.93;;;0.20;99.90;;;;;;2081483;28;20259;-64
2021/04/19 02:20:12;;;;;;;21.90;10.82;;;0.10;99.90;;;;;;2075873;28;20183;-64
2021/04/19 02:21:42;;;;;;;17.52;11.00;;;0.10;99.90;;;;;;2073008;28;20577;-65
2021/04/19 02:23:02;;;;;;;14.98;10.25;;;0.00;99.90;;;;;;2066554;28;20210;-64
2021/04/19 02:24:11;;;;;;;16.33;10.25;;;0.00;99.90;;;;;;2067920;28;20257;-64
2021/04/19 02:25:25;;;;;;;18.45;11.07;;;-0.10;99.90;;;;;;2066155;28;20165;-63
2021/04/19 02:26:30;;;;;;;17.65;10.93;;;-0.10;99.90;;;;;;2074714;28;20245;-64
2021/04/19 02:27:38;;;;;;;18.77;11.18;;;-0.20;99.90;;;;;;2073430;28;20199;-64
2021/04/19 02:28:50;;;;;;;17.75;11.32;;;-0.20;99.90;;;;;;2065984;28;20234;-64
2021/04/19 02:29:53;;;;;;;18.35;12.20;;;-0.20;99.90;;;;;;2066552;28;20193;-63
2021/04/19 02:31:00;;;;;;;21.08;12.48;;;-0.20;99.90;;;;;;2065383;28;20234;-64
2021/04/19 02:32:08;;;;;;;20.38;11.57;;;-0.20;99.90;;;;;;2073915;28;20597;-64
2021/04/19 02:33:15;;;;;;;20.75;11.82;;;-0.20;99.90;;;;;;2081281;28;20234;-64
2021/04/19 02:34:18;;;;;;;18.63;11.82;;;-0.20;99.90;;;;;;2080698;28;20176;-64
2021/04/19 02:35:24;;;;;;;21.80;13.43;;;-0.20;99.90;;;;;;2081429;28;20172;-65
2021/04/19 02:36:27;;;;;;;21.45;13.48;;;-0.20;99.90;;;;;;2081121;28;20764;-65
2021/04/19 02:37:31;;;;;;;21.23;14.20;;;-0.20;99.90;;;;;;2073227;28;20255;-64
2021/04/19 02:38:33;;;;;;;20.52;13.30;;;-0.20;99.90;;;;;;2065441;28;20209;-64
2021/04/19 02:39:40;;;;;;;23.17;14.18;;;-0.20;99.90;;;;;;2073220;28;20268;-63
2021/04/19 02:40:40;;;;;;;29.60;15.98;;;-0.20;99.90;;;;;;2080485;28;20191;-64
2021/04/19 02:41:42;;;;;;;27.80;17.03;;;-0.10;99.90;;;;;;2073439;28;20188;-65
2021/04/19 02:42:50;;;;;;;30.92;15.15;;;-0.10;99.90;;;;;;2073691;28;20180;-65
2021/04/19 02:43:53;;;;;;;26.05;15.20;;;-0.10;99.90;;;;;;2081349;28;20647;-64
2021/04/19 02:44:54;;;;;;;27.55;15.02;;;-0.10;99.90;;;;;;2073138;28;20187;-65
2021/04/19 02:45:55;;;;;;;24.20;15.05;;;-0.10;99.90;;;;;;2072970;28;20196;-64
2021/04/19 02:46:58;;;;;;;23.83;14.37;;;-0.10;99.90;;;;;;2072941;28;20184;-64
2021/04/19 02:48:00;;;;;;;26.55;15.80;;;-0.10;99.90;;;;;;2081064;28;20191;-64
2021/04/19 02:49:02;;;;;;;26.80;16.17;;;0.00;99.90;;;;;;2081150;28;20187;-64
2021/04/19 02:50:07;;;;;;;28.98;16.33;;;0.00;99.90;;;;;;2080850;28;20250;-64
2021/04/19 02:51:09;;;;;;;24.25;15.23;;;0.00;99.90;;;;;;2080642;28;20199;-64
2021/04/19 02:52:11;;;;;;;24.88;15.25;;;0.00;99.90;;;;;;2081107;28;20184;-64
2021/04/19 02:53:12;;;;;;;22.67;14.05;;;0.00;99.90;;;;;;2072807;28;20187;-65
2021/04/19 02:54:14;;;;;;;29.63;17.17;;;0.00;99.90;;;;;;2073068;28;20184;-65
2021/04/19 02:55:19;;;;;;;25.55;15.90;;;0.00;99.90;;;;;;2081066;28;20535;-64
2021/04/19 02:56:20;;;;;;;28.10;16.65;;;0.00;99.90;;;;;;2081114;28;20685;-64
2021/04/19 02:57:28;;;;;;;26.85;16.10;;;0.10;99.90;;;;;;2072878;28;20179;-63
2021/04/19 02:59:00;;;;;;;23.02;14.02;;;0.10;99.90;;;;;;2073156;28;20170;-64
2021/04/19 03:00:03;;;;;;;23.98;13.00;;;0.00;99.90;;;;;;2073505;28;20253;-64
2021/04/19 03:01:09;;;;;;;25.73;14.32;;;0.00;99.90;;;;;;2073566;28;20183;-65
2021/04/19 03:02:11;;;;;;;19.02;12.52;;;0.00;99.90;;;;;;2080868;28;20191;-64
2021/04/19 03:03:20;;;;;;;22.77;13.75;;;0.00;99.90;;;;;;2072108;28;20262;-63
2021/04/19 03:04:26;;;;;;;20.30;12.65;;;-0.10;99.90;;;;;;2072185;28;20230;-65
2021/04/19 03:05:28;;;;;;;21.15;12.88;;;-0.10;99.90;;;;;;2073631;28;20168;-64
2021/04/19 03:06:30;;;;;;;20.20;12.18;;;-0.20;99.90;;;;;;2080943;28;20233;-65
2021/04/19 03:07:37;;;;;;;19.70;11.40;;;-0.20;99.90;;;;;;2081127;28;20196;-64
2021/04/19 03:08:47;;;;;;;19.00;11.70;;;-0.20;99.90;;;;;;2073628;28;20643;-65
2021/04/19 03:10:11;;;;;;;18.33;11.85;;;-0.20;99.90;;;;;;2073961;28;20278;-64
2021/04/19 03:11:18;;;;;;;17.80;10.77;;;-0.20;99.90;;;;;;2075871;28;20268;-64
2021/04/19 03:12:23;;;;;;;19.63;11.95;;;-0.30;99.90;;;;;;2073550;28;20155;-64
2021/04/19 03:13:26;;;;;;;18.23;12.88;;;-0.30;99.90;;;;;;2073493;28;20256;-64
2021/04/19 03:14:35;;;;;;;30.90;16.70;;;-0.30;99.90;;;;;;2080849;28;20879;-63
2021/04/19 03:15:39;;;;;;;22.05;14.63;;;-0.30;99.90;;;;;;2081053;28;20253;-65
2021/04/19 03:16:47;;;;;;;27.52;15.07;;;-0.20;99.90;;;;;;2072993;28;20204;-65
2021/04/19 03:17:50;;;;;;;24.65;16.00;;;-0.20;99.90;;;;;;2081155;28;20174;-64
2021/04/19 03:18:53;;;;;;;24.88;15.27;;;-0.20;99.90;;;;;;2081048;28;20182;-65
2021/04/19 03:20:03;;;;;;;23.00;14.18;;;-0.20;99.90;;;;;;2073099;28;20207;-64
2021/04/19 03:21:13;;;;;;;20.85;13.75;;;-0.20;99.90;;;;;;2073987;28;20211;-63
2021/04/19 03:22:14;;;;;;;26.38;14.32;;;-0.20;99.90;;;;;;2073856;28;20255;-64
2021/04/19 03:23:16;;;;;;;25.02;14.90;;;-0.10;99.90;;;;;;2080977;28;20332;-65
2021/04/19 03:24:17;;;;;;;25.73;15.52;;;-0.10;99.90;;;;;;2080762;28;20244;-65
2021/04/19 03:25:20;;;;;;;26.35;16.67;;;-0.10;99.90;;;;;;2072625;28;20211;-64
2021/04/19 03:26:24;;;;;;;30.98;16.90;;;0.00;99.90;;;;;;2072672;28;20215;-65
2021/04/19 03:27:27;;;;;;;31.23;18.50;;;0.00;99.90;;;;;;2073240;28;20667;-65
2021/04/19 03:28:31;;;;;;;29.00;16.35;;;0.00;99.90;;;;;;2080902;28;20257;-63
2021/04/19 03:29:33;;;;;;;38.22;19.27;;;0.00;99.90;;;;;;2089303;28;20195;-64
2021/04/19 03:30:34;;;;;;;39.13;19.48;;;0.00;99.90;;;;;;2088771;28;20178;-64
2021/04/19 03:31:41;;;;;;;31.27;18.57;;;0.00;99.90;;;;;;2088784;28;20527;-64
2021/04/19 03:32:51;;;;;;;32.83;17.65;;;0.10;99.90;;;;;;2080842;28;20678;-63
2021/04/19 03:33:56;;;;;;;31.77;17.83;;;0.20;99.90;;;;;;2081047;28;20186;-64
2021/04/19 03:34:59;;;;;;;34.08;19.40;;;0.20;99.90;;;;;;2080785;28;20187;-65
2021/04/19 03:36:02;;;;;;;30.48;18.02;;;0.20;99.90;;;;;;2080779;28;20182;-65
2021/04/19 03:37:18;;;;;;;29.45;18.58;;;0.20;99.90;;;;;;2088991;28;20211;-65
2021/04/19 03:38:21;;;;;;;38.90;21.15;;;0.20;99.90;;;;;;2087124;28;20173;-64
2021/04/19 03:39:25;;;;;;;45.92;26.27;;;0.20;99.90;;;;;;2080831;28;20188;-64
2021/04/19 03:40:33;;;;;;;36.17;20.80;;;0.20;99.90;;;;;;2072944;28;20437;-65
2021/04/19 03:41:39;;;;;;;39.33;22.05;;;0.30;99.90;;;;;;2073441;28;20174;-63
2021/04/19 03:42:43;;;;;;;41.22;21.52;;;0.30;99.90;;;;;;2073866;28;20218;-63
2021/04/19 03:43:51;;;;;;;33.42;18.38;;;0.20;99.90;;;;;;2072887;28;20187;-64
2021/04/19 03:44:54;;;;;;;33.20;18.00;;;0.20;99.90;;;;;;2073696;28;20169;-65
2021/04/19 03:46:03;;;;;;;36.88;20.13;;;0.20;99.90;;;;;;2072756;28;20187;-64
2021/04/19 03:47:05;;;;;;;30.88;17.15;;;0.20;99.90;;;;;;2073518;28;20296;-64
2021/04/19 03:48:11;;;;;;;25.58;15.27;;;0.10;99.90;;;;;;2072670;28;20215;-65
2021/04/19 03:49:18;;;;;;;27.08;17.25;;;0.10;99.90;;;;;;2073441;28;20209;-65
2021/04/19 03:50:22;;;;;;;24.80;15.32;;;0.10;99.90;;;;;;2073560;28;20286;-64
2021/04/19 03:51:25;;;;;;;21.67;13.60;;;0.00;99.90;;;;;;2072705;28;20189;-65
2021/04/19 03:52:40;;;;;;;22.83;14.55;;;0.00;99.90;;;;;;2073093;28;20180;-65
2021/04/19 03:53:43;;;;;;;26.20;14.35;;;0.00;99.90;;;;;;2074509;28;20276;-65
2021/04/19 03:54:47;;;;;;;17.13;12.40;;;-0.10;99.90;;;;;;2072885;28;20184;-65
2021/04/19 03:55:49;;;;;;;24.08;13.77;;;-0.10;99.90;;;;;;2073204;28;20292;-62
2021/04/19 03:56:50;;;;;;;27.65;14.32;;;-0.20;99.90;;;;;;2080920;28;20594;-64
2021/04/19 03:57:52;;;;;;;17.73;11.35;;;-0.20;99.90;;;;;;2080787;28;20190;-64
2021/04/19 03:58:58;;;;;;;23.10;13.82;;;-0.20;99.90;;;;;;2072837;28;20210;-64
2021/04/19 04:00:06;;;;;;;23.08;12.95;;;-0.20;99.90;;;;;;2080884;28;20229;-64
2021/04/19 04:01:08;;;;;;;21.80;13.23;;;-0.20;99.90;;;;;;2080791;28;20628;-64
2021/04/19 04:02:10;;;;;;;22.05;13.65;;;-0.30;99.90;;;;;;2079917;28;20179;-64
2021/04/19 04:03:12;;;;;;;21.15;13.27;;;-0.30;99.90;;;;;;2080730;28;20174;-65
2021/04/19 04:04:15;;;;;;;24.48;13.75;;;-0.30;99.90;;;;;;2088848;28;20178;-65
2021/04/19 04:05:16;;;;;;;24.58;14.35;;;-0.30;99.90;;;;;;2088644;28;20179;-65
2021/04/19 04:06:18;;;;;;;24.52;14.40;;;-0.30;99.90;;;;;;2081277;28;20250;-65
2021/04/19 04:07:19;;;;;;;27.23;16.30;;;-0.30;99.90;;;;;;2080696;28;20569;-65
2021/04/19 04:08:21;;;;;;;28.05;16.75;;;-0.30;99.90;;;;;;2072678;28;20690;-65
2021/04/19 04:09:23;;;;;;;22.48;14.80;;;-0.30;99.90;;;;;;2072587;28;20183;-65
2021/04/19 04:10:24;;;;;;;22.55;14.70;;;-0.30;99.90;;;;;;2080560;28;20188;-65
2021/04/19 04:11:26;;;;;;;24.40;15.77;;;-0.30;99.90;;;;;;2080412;28;20176;-63
2021/04/19 04:12:27;;;;;;;25.65;16.75;;;-0.30;99.90;;;;;;2072503;28;20189;-64
2021/04/19 04:13:29;;;;;;;28.73;17.37;;;-0.30;99.90;;;;;;2080620;28;20206;-65
2021/04/19 04:14:30;;;;;;;33.60;18.33;;;-0.40;99.90;;;;;;2088753;28;20672;-65
2021/04/19 04:15:30;;;;;;;35.73;18.13;;;-0.30;99.90;;;;;;2088697;28;20173;-64
2021/04/19 04:16:31;;;;;;;28.47;16.33;;;-0.30;99.90;;;;;;2080313;28;20693;-64
2021/04/19 04:17:32;;;;;;;27.93;17.10;;;-0.30;99.90;;;;;;2080636;28;20182;-65
2021/04/19 04:18:33;;;;;;;29.20;17.90;;;-0.30;99.90;;;;;;2081130;28;20186;-64
2021/04/19 04:19:33;;;;;;;31.83;19.33;;;-0.30;99.90;;;;;;2081105;28;20167;-65
2021/04/19 04:20:34;;;;;;;28.40;17.80;;;-0.30;99.90;;;;;;2081036;28;20863;-65
2021/04/19 04:21:36;;;;;;;37.17;19.20;;;-0.30;99.90;;;;;;2080915;28;20301;-63
2021/04/19 04:22:36;;;;;;;31.08;17.90;;;-0.30;99.90;;;;;;2081004;28;20211;-63
2021/04/19 04:23:38;;;;;;;36.73;18.53;;;-0.30;99.90;;;;;;2081006;28;20210;-64
2021/04/19 04:24:39;;;;;;;33.92;18.42;;;-0.30;99.90;;;;;;2088595;28;20222;-65
2021/04/19 04:25:40;;;;;;;27.88;16.65;;;-0.30;99.90;;;;;;2088580;28;20179;-65
2021/04/19 04:26:41;;;;;;;32.70;18.17;;;-0.30;99.90;;;;;;2080228;28;20211;-63
2021/04/19 04:27:42;;;;;;;25.63;16.13;;;-0.30;99.90;;;;;;2072288;28;20210;-64
2021/04/19 04:28:46;;;;;;;36.60;20.10;;;-0.30;99.90;;;;;;2080445;28;20188;-64
2021/04/19 04:30:57;;;;;;;36.28;19.10;;;-0.30;99.90;;;;;;2094162;28;20237;-65
2021/04/19 04:31:58;;;;;;;30.35;18.27;;;-0.30;99.90;;;;;;2096334;28;20185;-66
2021/04/19 04:32:59;;;;;;;29.63;17.53;;;-0.30;99.90;;;;;;2096696;28;20478;-65
2021/04/19 04:33:59;;;;;;;27.50;17.17;;;-0.20;99.90;;;;;;2097135;28;20231;-66
2021/04/19 04:35:00;;;;;;;30.13;18.33;;;-0.30;99.90;;;;;;2097220;28;20192;-65
2021/04/19 04:36:01;;;;;;;38.47;21.37;;;-0.30;99.90;;;;;;2097356;28;20232;-66
2021/04/19 04:37:02;;;;;;;35.10;19.47;;;-0.30;99.90;;;;;;2096865;28;20221;-65
2021/04/19 04:38:03;;;;;;;32.28;18.67;;;-0.30;99.90;;;;;;2096836;28;20213;-66
2021/04/19 04:39:05;;;;;;;35.63;20.08;;;-0.30;99.90;;;;;;2097083;28;20198;-66
2021/04/19 04:40:06;;;;;;;39.15;20.45;;;-0.30;99.90;;;;;;2094578;28;20182;-65
2021/04/19 04:41:07;;;;;;;38.83;21.33;;;-0.30;99.90;;;;;;2088615;28;20540;-65
2021/04/19 04:42:14;;;;;;;36.00;18.80;;;-0.30;99.90;;;;;;2089100;28;20228;-66
2021/04/19 04:43:22;;;;;;;36.15;19.63;;;-0.30;99.90;;;;;;2088357;28;20175;-66
2021/04/19 04:44:37;;;;;;;31.30;18.92;;;-0.30;99.90;;;;;;2088348;28;20167;-66
2021/04/19 04:45:39;;;;;;;28.75;17.45;;;-0.30;99.90;;;;;;2082209;28;20193;-66
2021/04/19 04:46:52;;;;;;;33.33;19.60;;;-0.30;99.90;;;;;;2088369;28;20253;-66
2021/04/19 04:48:09;;;;;;;32.83;18.23;;;-0.30;99.90;;;;;;2081767;28;20607;-65
2021/04/19 04:49:20;;;;;;;26.48;15.18;;;-0.30;99.90;;;;;;2082296;28;20201;-66
2021/04/19 04:50:45;;;;;;;24.17;15.10;;;-0.30;99.90;;;;;;2088249;28;20214;-65
2021/04/19 04:51:48;;;;;;;22.63;14.18;;;-0.30;99.90;;;;;;2088253;28;20773;-65
2021/04/19 04:53:18;;;;;;;25.30;14.52;;;-0.40;99.90;;;;;;2080444;28;20192;-65
2021/04/19 04:54:21;;;;;;;23.90;14.45;;;-0.40;99.90;;;;;;2083943;28;20225;-65
2021/04/19 04:55:24;;;;;;;26.33;14.15;;;-0.40;99.90;;;;;;2088131;28;20269;-66
2021/04/19 04:56:27;;;;;;;25.77;15.95;;;-0.40;99.90;;;;;;2088264;28;20241;-66
2021/04/19 04:57:29;;;;;;;25.70;15.48;;;-0.30;99.90;;;;;;2088154;28;20186;-66
2021/04/19 04:58:31;;;;;;;22.85;15.02;;;-0.30;99.90;;;;;;2088311;28;20236;-65
2021/04/19 04:59:32;;;;;;;26.13;15.63;;;-0.20;99.90;;;;;;2088057;28;20177;-65
2021/04/19 05:00:35;;;;;;;24.98;16.40;;;-0.20;99.90;;;;;;2088168;28;20200;-65
2021/04/19 05:01:36;;;;;;;26.90;15.90;;;-0.10;99.90;;;;;;2088017;28;20196;-65
2021/04/19 05:02:37;;;;;;;32.05;16.90;;;-0.10;99.90;;;;;;2088264;28;20183;-66
2021/04/19 05:03:40;;;;;;;27.00;16.90;;;-0.10;99.90;;;;;;2088754;28;20183;-65
2021/04/19 05:04:41;;;;;;;27.73;16.42;;;-0.10;99.90;;;;;;2089719;28;20205;-65
2021/04/19 05:05:45;;;;;;;27.67;16.30;;;0.00;99.90;;;;;;2089771;28;20181;-65
2021/04/19 05:06:47;;;;;;;27.45;16.27;;;0.00;99.90;;;;;;2090065;28;20193;-65
2021/04/19 05:07:48;;;;;;;26.98;17.25;;;0.10;99.90;;;;;;2090029;28;20548;-66
2021/04/19 05:08:50;;;;;;;29.65;18.15;;;0.10;99.90;;;;;;2090030;28;20197;-65
2021/04/19 05:09:51;;;;;;;34.22;19.55;;;0.20;99.90;;;;;;2075979;28;20238;-66
2021/04/19 05:10:56;;;;;;;25.20;17.17;;;0.20;99.90;;;;;;2073745;28;20188;-66
2021/04/19 05:11:56;;;;;;;24.33;15.60;;;0.30;99.90;;;;;;2073443;28;20426;-65
2021/04/19 05:12:57;;;;;;;24.80;15.17;;;0.30;99.90;;;;;;2074345;28;20219;-65
2021/04/19 05:14:02;;;;;;;25.90;15.63;;;0.40;99.90;;;;;;2075380;28;20456;-65
2021/04/19 05:15:09;;;;;;;26.95;16.98;;;0.40;99.90;;;;;;2076003;28;20187;-66
2021/04/19 05:16:10;;;;;;;23.80;16.30;;;0.50;99.90;;;;;;2075875;28;20178;-65
2021/04/19 05:17:10;;;;;;;30.63;17.20;;;0.50;99.90;;;;;;2075820;28;20715;-65
2021/04/19 05:18:19;;;;;;;24.77;16.23;;;0.60;99.90;;;;;;2075812;28;20186;-65
2021/04/19 05:19:19;;;;;;;22.63;14.32;;;0.60;99.90;;;;;;2076097;28;20176;-65
2021/04/19 05:20:20;;;;;;;26.57;17.47;;;0.60;99.90;;;;;;2075584;28;20283;-66
2021/04/19 05:21:21;;;;;;;27.73;17.60;;;0.70;99.90;;;;;;2075565;28;20175;-66
2021/04/19 05:22:21;;;;;;;24.20;17.50;;;0.70;99.90;;;;;;2075591;28;20506;-66
2021/04/19 05:23:23;;;;;;;27.90;17.90;;;0.70;99.90;;;;;;2075670;28;20267;-65
2021/04/19 05:24:23;;;;;;;30.15;16.85;;;0.60;99.90;;;;;;2075755;28;20174;-65
2021/04/19 05:25:24;;;;;;;28.00;18.30;;;0.70;99.90;;;;;;2075739;28;20225;-66
2021/04/19 05:26:26;;;;;;;28.13;18.30;;;0.80;99.90;;;;;;2074985;28;20176;-65
2021/04/19 05:27:28;;;;;;;31.67;20.73;;;0.80;99.90;;;;;;2074173;28;20220;-66
2021/04/19 05:28:29;;;;;;;29.10;20.40;;;0.90;99.90;;;;;;2082446;28;20179;-65
2021/04/19 05:29:31;;;;;;;32.03;20.55;;;1.00;99.90;;;;;;2074185;28;20182;-65